sensor_id;sensor_type;location;lat;lon;timestamp;P1;durP1;ratioP1;P2;durP2;ratioP2
74375;SDS011;62812;55.188;61.302;2023-08-07T00:01:34;17.63;;;10.43;;
74375;SDS011;62812;55.188;61.302;2023-08-07T00:04:01;20.80;;;11.05;;
74375;SDS011;62812;55.188;61.302;2023-08-07T00:06:27;20.30;;;11.02;;
74375;SDS011;62812;55.188;61.302;2023-08-07T00:08:54;19.30;;;9.98;;
74375;SDS011;62812;55.188;61.302;2023-08-07T00:11:21;21.15;;;10.60;;
74375;SDS011;62812;55.188;61.302;2023-08-07T00:13:48;18.98;;;10.35;;
74375;SDS011;62812;55.188;61.302;2023-08-07T00:16:16;16.40;;;8.82;;
74375;SDS011;62812;55.188;61.302;2023-08-07T00:18:43;18.42;;;10.57;;
74375;SDS011;62812;55.188;61.302;2023-08-07T00:21:09;21.35;;;9.98;;
74375;SDS011;62812;55.188;61.302;2023-08-07T00:23:35;18.42;;;10.40;;
74375;SDS011;62812;55.188;61.302;2023-08-07T00:26:02;18.63;;;10.65;;
74375;SDS011;62812;55.188;61.302;2023-08-07T00:28:30;16.98;;;9.52;;
74375;SDS011;62812;55.188;61.302;2023-08-07T00:30:57;19.88;;;11.27;;
74375;SDS011;62812;55.188;61.302;2023-08-07T00:33:25;19.70;;;10.73;;
74375;SDS011;62812;55.188;61.302;2023-08-07T00:35:52;20.08;;;10.05;;
74375;SDS011;62812;55.188;61.302;2023-08-07T00:38:18;18.85;;;9.80;;
74375;SDS011;62812;55.188;61.302;2023-08-07T00:40:45;20.40;;;11.15;;
74375;SDS011;62812;55.188;61.302;2023-08-07T00:43:11;17.50;;;10.52;;
74375;SDS011;62812;55.188;61.302;2023-08-07T00:45:40;20.35;;;11.35;;
74375;SDS011;62812;55.188;61.302;2023-08-07T00:48:08;27.60;;;11.23;;
74375;SDS011;62812;55.188;61.302;2023-08-07T00:50:36;16.67;;;9.15;;
74375;SDS011;62812;55.188;61.302;2023-08-07T00:53:03;19.75;;;10.07;;
74375;SDS011;62812;55.188;61.302;2023-08-07T00:55:30;17.92;;;10.38;;
74375;SDS011;62812;55.188;61.302;2023-08-07T00:57:57;21.08;;;11.13;;
74375;SDS011;62812;55.188;61.302;2023-08-07T01:00:24;22.70;;;11.73;;
74375;SDS011;62812;55.188;61.302;2023-08-07T01:02:51;20.73;;;11.45;;
74375;SDS011;62812;55.188;61.302;2023-08-07T01:05:19;23.83;;;11.45;;
74375;SDS011;62812;55.188;61.302;2023-08-07T01:07:48;22.92;;;10.82;;
74375;SDS011;62812;55.188;61.302;2023-08-07T01:10:17;18.48;;;10.35;;
74375;SDS011;62812;55.188;61.302;2023-08-07T01:12:48;19.88;;;10.20;;
74375;SDS011;62812;55.188;61.302;2023-08-07T01:15:22;16.33;;;9.70;;
74375;SDS011;62812;55.188;61.302;2023-08-07T01:17:53;20.45;;;10.35;;
74375;SDS011;62812;55.188;61.302;2023-08-07T01:20:21;19.50;;;9.65;;
74375;SDS011;62812;55.188;61.302;2023-08-07T01:22:49;16.95;;;9.75;;
74375;SDS011;62812;55.188;61.302;2023-08-07T01:25:15;22.55;;;10.43;;
74375;SDS011;62812;55.188;61.302;2023-08-07T01:27:44;20.17;;;10.48;;
74375;SDS011;62812;55.188;61.302;2023-08-07T01:30:17;23.63;;;9.85;;
74375;SDS011;62812;55.188;61.302;2023-08-07T01:32:54;19.38;;;9.63;;
74375;SDS011;62812;55.188;61.302;2023-08-07T01:35:27;20.00;;;9.98;;
74375;SDS011;62812;55.188;61.302;2023-08-07T01:37:57;30.60;;;10.02;;
74375;SDS011;62812;55.188;61.302;2023-08-07T01:40:27;18.92;;;9.23;;
74375;SDS011;62812;55.188;61.302;2023-08-07T01:42:54;16.25;;;8.35;;
74375;SDS011;62812;55.188;61.302;2023-08-07T01:45:24;21.98;;;8.98;;
74375;SDS011;62812;55.188;61.302;2023-08-07T01:47:51;22.00;;;8.25;;
74375;SDS011;62812;55.188;61.302;2023-08-07T01:50:18;12.43;;;7.07;;
74375;SDS011;62812;55.188;61.302;2023-08-07T01:52:45;23.23;;;8.65;;
74375;SDS011;62812;55.188;61.302;2023-08-07T01:55:16;17.70;;;8.38;;
74375;SDS011;62812;55.188;61.302;2023-08-07T02:00:10;15.48;;;7.65;;
74375;SDS011;62812;55.188;61.302;2023-08-07T02:02:37;15.77;;;7.32;;
74375;SDS011;62812;55.188;61.302;2023-08-07T02:05:04;17.90;;;6.85;;
74375;SDS011;62812;55.188;61.302;2023-08-07T02:07:31;10.60;;;5.97;;
74375;SDS011;62812;55.188;61.302;2023-08-07T02:10:00;13.43;;;6.78;;
74375;SDS011;62812;55.188;61.302;2023-08-07T02:12:28;13.50;;;6.03;;
74375;SDS011;62812;55.188;61.302;2023-08-07T02:14:58;29.55;;;7.47;;
74375;SDS011;62812;55.188;61.302;2023-08-07T02:17:25;33.55;;;7.07;;
74375;SDS011;62812;55.188;61.302;2023-08-07T02:19:51;18.58;;;7.55;;
74375;SDS011;62812;55.188;61.302;2023-08-07T02:22:18;28.58;;;6.95;;
74375;SDS011;62812;55.188;61.302;2023-08-07T02:24:45;11.57;;;5.68;;
74375;SDS011;62812;55.188;61.302;2023-08-07T02:27:12;22.50;;;7.32;;
74375;SDS011;62812;55.188;61.302;2023-08-07T02:29:40;15.38;;;6.93;;
74375;SDS011;62812;55.188;61.302;2023-08-07T02:32:06;19.98;;;7.43;;
74375;SDS011;62812;55.188;61.302;2023-08-07T02:34:34;26.85;;;6.45;;
74375;SDS011;62812;55.188;61.302;2023-08-07T02:37:01;22.58;;;7.78;;
74375;SDS011;62812;55.188;61.302;2023-08-07T02:39:27;21.23;;;7.63;;
74375;SDS011;62812;55.188;61.302;2023-08-07T02:41:54;14.75;;;7.68;;
74375;SDS011;62812;55.188;61.302;2023-08-07T02:44:21;12.55;;;7.28;;
74375;SDS011;62812;55.188;61.302;2023-08-07T02:46:49;12.48;;;6.82;;
74375;SDS011;62812;55.188;61.302;2023-08-07T02:49:17;17.30;;;7.65;;
74375;SDS011;62812;55.188;61.302;2023-08-07T02:51:43;29.52;;;8.70;;
74375;SDS011;62812;55.188;61.302;2023-08-07T02:54:10;16.52;;;8.27;;
74375;SDS011;62812;55.188;61.302;2023-08-07T02:56:37;22.90;;;7.15;;
74375;SDS011;62812;55.188;61.302;2023-08-07T02:59:06;22.55;;;8.32;;
74375;SDS011;62812;55.188;61.302;2023-08-07T03:01:33;18.60;;;8.23;;
74375;SDS011;62812;55.188;61.302;2023-08-07T03:04:16;20.40;;;9.10;;
74375;SDS011;62812;55.188;61.302;2023-08-07T03:06:45;23.58;;;9.27;;
74375;SDS011;62812;55.188;61.302;2023-08-07T03:09:12;14.57;;;6.90;;
74375;SDS011;62812;55.188;61.302;2023-08-07T03:11:40;18.20;;;8.45;;
74375;SDS011;62812;55.188;61.302;2023-08-07T03:14:07;26.70;;;8.23;;
74375;SDS011;62812;55.188;61.302;2023-08-07T03:16:33;18.27;;;7.45;;
74375;SDS011;62812;55.188;61.302;2023-08-07T03:19:00;12.73;;;6.90;;
74375;SDS011;62812;55.188;61.302;2023-08-07T03:21:28;15.15;;;7.45;;
74375;SDS011;62812;55.188;61.302;2023-08-07T03:23:55;10.85;;;6.45;;
74375;SDS011;62812;55.188;61.302;2023-08-07T03:26:22;14.80;;;7.20;;
74375;SDS011;62812;55.188;61.302;2023-08-07T03:28:49;11.48;;;6.25;;
74375;SDS011;62812;55.188;61.302;2023-08-07T03:31:16;11.00;;;5.80;;
74375;SDS011;62812;55.188;61.302;2023-08-07T03:33:43;14.65;;;7.25;;
74375;SDS011;62812;55.188;61.302;2023-08-07T03:36:11;13.75;;;7.50;;
74375;SDS011;62812;55.188;61.302;2023-08-07T03:38:43;11.38;;;6.25;;
74375;SDS011;62812;55.188;61.302;2023-08-07T03:41:09;12.75;;;6.72;;
74375;SDS011;62812;55.188;61.302;2023-08-07T03:43:36;11.45;;;6.18;;
74375;SDS011;62812;55.188;61.302;2023-08-07T03:46:02;13.10;;;6.60;;
74375;SDS011;62812;55.188;61.302;2023-08-07T03:48:30;12.95;;;7.40;;
74375;SDS011;62812;55.188;61.302;2023-08-07T03:51:01;13.10;;;6.28;;
74375;SDS011;62812;55.188;61.302;2023-08-07T03:53:28;13.63;;;6.60;;
74375;SDS011;62812;55.188;61.302;2023-08-07T03:55:57;16.73;;;8.88;;
74375;SDS011;62812;55.188;61.302;2023-08-07T03:58:23;15.02;;;8.18;;
74375;SDS011;62812;55.188;61.302;2023-08-07T04:00:50;15.52;;;7.72;;
74375;SDS011;62812;55.188;61.302;2023-08-07T04:03:18;15.70;;;8.10;;
74375;SDS011;62812;55.188;61.302;2023-08-07T04:05:45;15.13;;;8.45;;
74375;SDS011;62812;55.188;61.302;2023-08-07T04:08:16;17.45;;;9.27;;
74375;SDS011;62812;55.188;61.302;2023-08-07T04:10:42;15.82;;;8.70;;
74375;SDS011;62812;55.188;61.302;2023-08-07T04:13:10;15.10;;;8.52;;
74375;SDS011;62812;55.188;61.302;2023-08-07T04:15:37;14.00;;;8.23;;
74375;SDS011;62812;55.188;61.302;2023-08-07T04:18:04;17.17;;;9.65;;
74375;SDS011;62812;55.188;61.302;2023-08-07T04:20:31;15.73;;;8.38;;
74375;SDS011;62812;55.188;61.302;2023-08-07T04:22:58;17.27;;;8.60;;
74375;SDS011;62812;55.188;61.302;2023-08-07T04:25:24;18.25;;;9.23;;
74375;SDS011;62812;55.188;61.302;2023-08-07T04:27:52;14.98;;;8.20;;
74375;SDS011;62812;55.188;61.302;2023-08-07T04:30:22;16.40;;;8.48;;
74375;SDS011;62812;55.188;61.302;2023-08-07T04:32:49;17.98;;;9.57;;
74375;SDS011;62812;55.188;61.302;2023-08-07T04:35:16;16.95;;;9.52;;
74375;SDS011;62812;55.188;61.302;2023-08-07T04:37:43;18.33;;;10.52;;
74375;SDS011;62812;55.188;61.302;2023-08-07T04:40:14;17.73;;;8.93;;
74375;SDS011;62812;55.188;61.302;2023-08-07T04:42:41;17.23;;;8.65;;
74375;SDS011;62812;55.188;61.302;2023-08-07T04:45:09;17.45;;;9.35;;
74375;SDS011;62812;55.188;61.302;2023-08-07T04:47:37;16.92;;;8.98;;
74375;SDS011;62812;55.188;61.302;2023-08-07T04:50:04;16.63;;;9.43;;
74375;SDS011;62812;55.188;61.302;2023-08-07T04:52:31;18.25;;;9.57;;
74375;SDS011;62812;55.188;61.302;2023-08-07T04:54:58;25.00;;;9.43;;
74375;SDS011;62812;55.188;61.302;2023-08-07T04:57:24;16.98;;;8.98;;
74375;SDS011;62812;55.188;61.302;2023-08-07T04:59:51;18.40;;;9.43;;
74375;SDS011;62812;55.188;61.302;2023-08-07T05:02:22;17.63;;;9.32;;
74375;SDS011;62812;55.188;61.302;2023-08-07T05:04:51;16.58;;;8.98;;
74375;SDS011;62812;55.188;61.302;2023-08-07T05:07:17;18.00;;;9.88;;
74375;SDS011;62812;55.188;61.302;2023-08-07T05:09:44;17.58;;;9.00;;
74375;SDS011;62812;55.188;61.302;2023-08-07T05:12:15;15.82;;;8.48;;
74375;SDS011;62812;55.188;61.302;2023-08-07T05:14:42;17.15;;;9.05;;
74375;SDS011;62812;55.188;61.302;2023-08-07T05:17:09;15.00;;;8.93;;
74375;SDS011;62812;55.188;61.302;2023-08-07T05:19:36;15.95;;;9.20;;
74375;SDS011;62812;55.188;61.302;2023-08-07T05:22:06;14.40;;;8.20;;
74375;SDS011;62812;55.188;61.302;2023-08-07T05:24:32;16.90;;;9.35;;
74375;SDS011;62812;55.188;61.302;2023-08-07T05:27:04;15.73;;;9.68;;
74375;SDS011;62812;55.188;61.302;2023-08-07T05:29:32;15.70;;;9.40;;
74375;SDS011;62812;55.188;61.302;2023-08-07T05:31:59;18.38;;;9.85;;
74375;SDS011;62812;55.188;61.302;2023-08-07T05:34:26;18.60;;;9.73;;
74375;SDS011;62812;55.188;61.302;2023-08-07T05:36:53;19.38;;;10.68;;
74375;SDS011;62812;55.188;61.302;2023-08-07T05:39:21;17.92;;;9.88;;
74375;SDS011;62812;55.188;61.302;2023-08-07T05:41:47;18.55;;;9.77;;
74375;SDS011;62812;55.188;61.302;2023-08-07T05:44:14;17.08;;;9.35;;
74375;SDS011;62812;55.188;61.302;2023-08-07T05:46:40;20.30;;;10.07;;
74375;SDS011;62812;55.188;61.302;2023-08-07T05:49:08;19.15;;;10.75;;
74375;SDS011;62812;55.188;61.302;2023-08-07T05:51:37;20.77;;;10.73;;
74375;SDS011;62812;55.188;61.302;2023-08-07T05:54:05;17.45;;;9.95;;
74375;SDS011;62812;55.188;61.302;2023-08-07T05:56:33;19.98;;;10.38;;
74375;SDS011;62812;55.188;61.302;2023-08-07T05:59:00;22.25;;;11.13;;
74375;SDS011;62812;55.188;61.302;2023-08-07T06:01:27;22.80;;;11.55;;
74375;SDS011;62812;55.188;61.302;2023-08-07T06:03:56;20.15;;;11.32;;
74375;SDS011;62812;55.188;61.302;2023-08-07T06:06:24;24.20;;;12.23;;
74375;SDS011;62812;55.188;61.302;2023-08-07T06:08:51;22.08;;;12.18;;
74375;SDS011;62812;55.188;61.302;2023-08-07T06:11:18;23.02;;;13.48;;
74375;SDS011;62812;55.188;61.302;2023-08-07T06:13:48;24.70;;;12.82;;
74375;SDS011;62812;55.188;61.302;2023-08-07T06:16:15;24.42;;;13.88;;
74375;SDS011;62812;55.188;61.302;2023-08-07T06:18:42;23.73;;;13.18;;
74375;SDS011;62812;55.188;61.302;2023-08-07T06:21:08;24.05;;;13.50;;
74375;SDS011;62812;55.188;61.302;2023-08-07T06:23:36;24.73;;;13.85;;
74375;SDS011;62812;55.188;61.302;2023-08-07T06:26:03;24.25;;;13.48;;
74375;SDS011;62812;55.188;61.302;2023-08-07T06:28:34;26.23;;;14.48;;
74375;SDS011;62812;55.188;61.302;2023-08-07T06:31:05;23.52;;;13.05;;
74375;SDS011;62812;55.188;61.302;2023-08-07T06:33:38;22.90;;;13.13;;
74375;SDS011;62812;55.188;61.302;2023-08-07T06:36:06;22.88;;;13.40;;
74375;SDS011;62812;55.188;61.302;2023-08-07T06:38:34;23.70;;;13.15;;
74375;SDS011;62812;55.188;61.302;2023-08-07T06:41:01;30.92;;;15.88;;
74375;SDS011;62812;55.188;61.302;2023-08-07T06:43:28;26.77;;;15.40;;
74375;SDS011;62812;55.188;61.302;2023-08-07T06:45:55;25.73;;;15.35;;
74375;SDS011;62812;55.188;61.302;2023-08-07T06:48:24;25.17;;;15.30;;
74375;SDS011;62812;55.188;61.302;2023-08-07T06:50:50;29.45;;;15.32;;
74375;SDS011;62812;55.188;61.302;2023-08-07T06:53:17;26.33;;;14.55;;
74375;SDS011;62812;55.188;61.302;2023-08-07T06:55:44;24.88;;;14.27;;
74375;SDS011;62812;55.188;61.302;2023-08-07T06:58:11;26.98;;;14.57;;
74375;SDS011;62812;55.188;61.302;2023-08-07T07:00:38;26.77;;;14.88;;
74375;SDS011;62812;55.188;61.302;2023-08-07T07:03:04;24.20;;;14.55;;
74375;SDS011;62812;55.188;61.302;2023-08-07T07:05:34;24.98;;;13.70;;
74375;SDS011;62812;55.188;61.302;2023-08-07T07:08:01;24.88;;;14.75;;
74375;SDS011;62812;55.188;61.302;2023-08-07T07:10:28;24.05;;;13.90;;
74375;SDS011;62812;55.188;61.302;2023-08-07T07:12:55;21.83;;;13.63;;
74375;SDS011;62812;55.188;61.302;2023-08-07T07:15:22;20.42;;;12.88;;
74375;SDS011;62812;55.188;61.302;2023-08-07T07:17:50;23.55;;;14.00;;
74375;SDS011;62812;55.188;61.302;2023-08-07T07:20:17;20.45;;;12.35;;
74375;SDS011;62812;55.188;61.302;2023-08-07T07:22:45;22.92;;;12.93;;
74375;SDS011;62812;55.188;61.302;2023-08-07T07:25:12;20.15;;;11.88;;
74375;SDS011;62812;55.188;61.302;2023-08-07T07:27:39;21.25;;;13.60;;
74375;SDS011;62812;55.188;61.302;2023-08-07T07:30:06;24.20;;;13.40;;
74375;SDS011;62812;55.188;61.302;2023-08-07T07:32:35;23.48;;;13.55;;
74375;SDS011;62812;55.188;61.302;2023-08-07T07:35:02;22.23;;;13.30;;
74375;SDS011;62812;55.188;61.302;2023-08-07T07:37:30;22.77;;;13.90;;
74375;SDS011;62812;55.188;61.302;2023-08-07T07:39:59;21.77;;;13.05;;
74375;SDS011;62812;55.188;61.302;2023-08-07T07:42:25;23.17;;;12.55;;
74375;SDS011;62812;55.188;61.302;2023-08-07T07:44:52;19.17;;;12.63;;
74375;SDS011;62812;55.188;61.302;2023-08-07T07:47:19;21.95;;;12.82;;
74375;SDS011;62812;55.188;61.302;2023-08-07T07:49:49;19.05;;;12.73;;
74375;SDS011;62812;55.188;61.302;2023-08-07T07:52:31;21.35;;;13.10;;
74375;SDS011;62812;55.188;61.302;2023-08-07T07:54:59;19.58;;;13.30;;
74375;SDS011;62812;55.188;61.302;2023-08-07T07:57:26;24.40;;;14.27;;
74375;SDS011;62812;55.188;61.302;2023-08-07T07:59:52;19.60;;;13.02;;
74375;SDS011;62812;55.188;61.302;2023-08-07T08:02:20;22.10;;;13.82;;
74375;SDS011;62812;55.188;61.302;2023-08-07T08:04:48;18.52;;;12.73;;
74375;SDS011;62812;55.188;61.302;2023-08-07T08:07:15;17.33;;;11.63;;
74375;SDS011;62812;55.188;61.302;2023-08-07T08:09:41;19.33;;;12.38;;
74375;SDS011;62812;55.188;61.302;2023-08-07T08:12:11;19.15;;;13.32;;
74375;SDS011;62812;55.188;61.302;2023-08-07T08:14:37;18.75;;;12.10;;
74375;SDS011;62812;55.188;61.302;2023-08-07T08:17:04;21.90;;;12.57;;
74375;SDS011;62812;55.188;61.302;2023-08-07T08:19:31;18.92;;;11.80;;
74375;SDS011;62812;55.188;61.302;2023-08-07T08:21:59;19.45;;;12.65;;
74375;SDS011;62812;55.188;61.302;2023-08-07T08:24:26;19.05;;;12.40;;
74375;SDS011;62812;55.188;61.302;2023-08-07T08:26:52;18.20;;;11.77;;
74375;SDS011;62812;55.188;61.302;2023-08-07T08:29:20;17.17;;;11.25;;
74375;SDS011;62812;55.188;61.302;2023-08-07T08:31:47;18.67;;;12.18;;
74375;SDS011;62812;55.188;61.302;2023-08-07T08:34:15;16.45;;;11.63;;
74375;SDS011;62812;55.188;61.302;2023-08-07T08:36:43;17.80;;;11.93;;
74375;SDS011;62812;55.188;61.302;2023-08-07T08:39:18;19.30;;;11.93;;
74375;SDS011;62812;55.188;61.302;2023-08-07T08:41:47;18.05;;;11.10;;
74375;SDS011;62812;55.188;61.302;2023-08-07T08:44:16;16.05;;;11.55;;
74375;SDS011;62812;55.188;61.302;2023-08-07T08:46:52;16.33;;;11.65;;
74375;SDS011;62812;55.188;61.302;2023-08-07T08:49:23;19.17;;;11.93;;
74375;SDS011;62812;55.188;61.302;2023-08-07T08:51:56;17.60;;;11.75;;
74375;SDS011;62812;55.188;61.302;2023-08-07T08:54:28;17.02;;;11.27;;
74375;SDS011;62812;55.188;61.302;2023-08-07T08:56:55;16.45;;;11.65;;
74375;SDS011;62812;55.188;61.302;2023-08-07T08:59:22;16.65;;;12.10;;
74375;SDS011;62812;55.188;61.302;2023-08-07T09:01:53;19.77;;;11.35;;
74375;SDS011;62812;55.188;61.302;2023-08-07T09:04:20;15.63;;;11.32;;
74375;SDS011;62812;55.188;61.302;2023-08-07T09:06:46;18.63;;;11.88;;
74375;SDS011;62812;55.188;61.302;2023-08-07T09:09:14;16.10;;;11.00;;
74375;SDS011;62812;55.188;61.302;2023-08-07T09:11:42;15.77;;;10.73;;
74375;SDS011;62812;55.188;61.302;2023-08-07T09:14:11;21.45;;;12.88;;
74375;SDS011;62812;55.188;61.302;2023-08-07T09:16:43;17.33;;;12.13;;
74375;SDS011;62812;55.188;61.302;2023-08-07T09:19:28;18.33;;;10.60;;
74375;SDS011;62812;55.188;61.302;2023-08-07T09:21:55;19.20;;;11.77;;
74375;SDS011;62812;55.188;61.302;2023-08-07T09:24:23;21.52;;;12.95;;
74375;SDS011;62812;55.188;61.302;2023-08-07T09:26:51;20.25;;;12.65;;
74375;SDS011;62812;55.188;61.302;2023-08-07T09:29:19;17.45;;;12.32;;
74375;SDS011;62812;55.188;61.302;2023-08-07T09:31:47;16.92;;;11.75;;
74375;SDS011;62812;55.188;61.302;2023-08-07T09:34:19;16.85;;;10.23;;
74375;SDS011;62812;55.188;61.302;2023-08-07T09:39:19;14.43;;;9.63;;
74375;SDS011;62812;55.188;61.302;2023-08-07T09:41:51;14.40;;;9.80;;
74375;SDS011;62812;55.188;61.302;2023-08-07T09:44:19;15.52;;;10.07;;
74375;SDS011;62812;55.188;61.302;2023-08-07T09:46:47;16.52;;;9.88;;
74375;SDS011;62812;55.188;61.302;2023-08-07T09:49:34;13.35;;;9.43;;
74375;SDS011;62812;55.188;61.302;2023-08-07T09:52:02;15.32;;;9.90;;
74375;SDS011;62812;55.188;61.302;2023-08-07T09:54:33;17.58;;;10.25;;
74375;SDS011;62812;55.188;61.302;2023-08-07T09:57:01;16.25;;;10.80;;
74375;SDS011;62812;55.188;61.302;2023-08-07T09:59:28;14.40;;;10.10;;
74375;SDS011;62812;55.188;61.302;2023-08-07T10:01:55;16.00;;;9.98;;
74375;SDS011;62812;55.188;61.302;2023-08-07T10:04:22;15.93;;;10.57;;
74375;SDS011;62812;55.188;61.302;2023-08-07T10:06:58;16.90;;;9.90;;
74375;SDS011;62812;55.188;61.302;2023-08-07T10:09:28;14.70;;;10.02;;
74375;SDS011;62812;55.188;61.302;2023-08-07T10:11:56;14.90;;;10.07;;
74375;SDS011;62812;55.188;61.302;2023-08-07T10:14:26;16.73;;;10.35;;
74375;SDS011;62812;55.188;61.302;2023-08-07T10:16:53;14.70;;;10.27;;
74375;SDS011;62812;55.188;61.302;2023-08-07T10:19:25;19.02;;;9.82;;
74375;SDS011;62812;55.188;61.302;2023-08-07T10:21:53;15.38;;;10.80;;
74375;SDS011;62812;55.188;61.302;2023-08-07T10:24:23;18.33;;;10.23;;
74375;SDS011;62812;55.188;61.302;2023-08-07T10:26:52;18.13;;;10.18;;
74375;SDS011;62812;55.188;61.302;2023-08-07T10:29:23;15.95;;;10.40;;
74375;SDS011;62812;55.188;61.302;2023-08-07T10:31:53;14.35;;;9.65;;
74375;SDS011;62812;55.188;61.302;2023-08-07T10:34:23;17.48;;;10.48;;
74375;SDS011;62812;55.188;61.302;2023-08-07T10:36:50;14.60;;;10.57;;
74375;SDS011;62812;55.188;61.302;2023-08-07T10:39:18;19.77;;;11.93;;
74375;SDS011;62812;55.188;61.302;2023-08-07T10:41:46;14.70;;;10.07;;
74375;SDS011;62812;55.188;61.302;2023-08-07T10:44:18;16.10;;;10.43;;
74375;SDS011;62812;55.188;61.302;2023-08-07T10:46:49;13.88;;;9.25;;
74375;SDS011;62812;55.188;61.302;2023-08-07T10:49:30;14.75;;;10.02;;
74375;SDS011;62812;55.188;61.302;2023-08-07T10:51:58;16.30;;;10.32;;
74375;SDS011;62812;55.188;61.302;2023-08-07T10:54:37;14.02;;;10.40;;
74375;SDS011;62812;55.188;61.302;2023-08-07T10:57:11;17.25;;;9.85;;
74375;SDS011;62812;55.188;61.302;2023-08-07T10:59:48;16.58;;;10.45;;
74375;SDS011;62812;55.188;61.302;2023-08-07T11:02:22;19.98;;;10.50;;
74375;SDS011;62812;55.188;61.302;2023-08-07T11:04:51;13.90;;;9.63;;
74375;SDS011;62812;55.188;61.302;2023-08-07T11:07:22;13.68;;;9.73;;
74375;SDS011;62812;55.188;61.302;2023-08-07T11:09:50;13.68;;;9.98;;
74375;SDS011;62812;55.188;61.302;2023-08-07T11:12:18;14.20;;;9.65;;
74375;SDS011;62812;55.188;61.302;2023-08-07T11:14:47;13.32;;;9.45;;
74375;SDS011;62812;55.188;61.302;2023-08-07T11:17:14;15.98;;;9.40;;
74375;SDS011;62812;55.188;61.302;2023-08-07T11:19:43;14.65;;;9.30;;
74375;SDS011;62812;55.188;61.302;2023-08-07T11:22:12;14.50;;;9.55;;
74375;SDS011;62812;55.188;61.302;2023-08-07T11:24:42;13.65;;;9.23;;
74375;SDS011;62812;55.188;61.302;2023-08-07T11:27:10;11.93;;;8.43;;
74375;SDS011;62812;55.188;61.302;2023-08-07T11:29:37;14.23;;;8.90;;
74375;SDS011;62812;55.188;61.302;2023-08-07T11:32:08;15.02;;;9.27;;
74375;SDS011;62812;55.188;61.302;2023-08-07T11:34:37;14.05;;;8.32;;
74375;SDS011;62812;55.188;61.302;2023-08-07T11:37:06;15.57;;;8.70;;
74375;SDS011;62812;55.188;61.302;2023-08-07T11:39:41;12.70;;;8.82;;
74375;SDS011;62812;55.188;61.302;2023-08-07T11:42:08;15.85;;;9.52;;
74375;SDS011;62812;55.188;61.302;2023-08-07T11:44:35;14.57;;;8.95;;
74375;SDS011;62812;55.188;61.302;2023-08-07T11:47:03;13.82;;;8.85;;
74375;SDS011;62812;55.188;61.302;2023-08-07T11:49:32;9.95;;;7.18;;
74375;SDS011;62812;55.188;61.302;2023-08-07T11:52:03;10.98;;;7.30;;
74375;SDS011;62812;55.188;61.302;2023-08-07T11:54:32;11.85;;;7.30;;
74375;SDS011;62812;55.188;61.302;2023-08-07T11:57:14;12.98;;;8.02;;
74375;SDS011;62812;55.188;61.302;2023-08-07T11:59:49;12.25;;;8.52;;
74375;SDS011;62812;55.188;61.302;2023-08-07T12:02:24;11.32;;;8.55;;
74375;SDS011;62812;55.188;61.302;2023-08-07T12:04:52;11.80;;;7.90;;
74375;SDS011;62812;55.188;61.302;2023-08-07T12:07:24;13.13;;;8.65;;
74375;SDS011;62812;55.188;61.302;2023-08-07T12:09:53;13.93;;;9.32;;
74375;SDS011;62812;55.188;61.302;2023-08-07T12:12:21;12.63;;;8.70;;
74375;SDS011;62812;55.188;61.302;2023-08-07T12:14:52;13.18;;;7.82;;
74375;SDS011;62812;55.188;61.302;2023-08-07T12:17:21;11.88;;;7.00;;
74375;SDS011;62812;55.188;61.302;2023-08-07T12:19:49;12.07;;;6.65;;
74375;SDS011;62812;55.188;61.302;2023-08-07T12:22:19;11.05;;;6.60;;
74375;SDS011;62812;55.188;61.302;2023-08-07T12:24:47;11.32;;;6.85;;
74375;SDS011;62812;55.188;61.302;2023-08-07T12:27:14;10.48;;;6.70;;
74375;SDS011;62812;55.188;61.302;2023-08-07T12:29:41;10.32;;;5.95;;
74375;SDS011;62812;55.188;61.302;2023-08-07T12:32:08;13.32;;;6.35;;
74375;SDS011;62812;55.188;61.302;2023-08-07T12:34:35;10.35;;;5.45;;
74375;SDS011;62812;55.188;61.302;2023-08-07T12:37:07;9.80;;;5.63;;
74375;SDS011;62812;55.188;61.302;2023-08-07T12:39:45;9.95;;;5.25;;
74375;SDS011;62812;55.188;61.302;2023-08-07T12:42:12;11.55;;;5.47;;
74375;SDS011;62812;55.188;61.302;2023-08-07T12:44:38;10.43;;;5.00;;
74375;SDS011;62812;55.188;61.302;2023-08-07T12:47:05;9.05;;;5.03;;
74375;SDS011;62812;55.188;61.302;2023-08-07T12:49:32;11.13;;;5.60;;
74375;SDS011;62812;55.188;61.302;2023-08-07T12:51:59;9.18;;;5.53;;
74375;SDS011;62812;55.188;61.302;2023-08-07T12:54:26;12.35;;;5.38;;
74375;SDS011;62812;55.188;61.302;2023-08-07T12:56:59;11.45;;;5.40;;
74375;SDS011;62812;55.188;61.302;2023-08-07T12:59:26;8.82;;;5.47;;
74375;SDS011;62812;55.188;61.302;2023-08-07T13:01:53;9.57;;;5.68;;
74375;SDS011;62812;55.188;61.302;2023-08-07T13:04:20;9.57;;;5.47;;
74375;SDS011;62812;55.188;61.302;2023-08-07T13:06:47;10.15;;;5.90;;
74375;SDS011;62812;55.188;61.302;2023-08-07T13:09:15;13.55;;;5.78;;
74375;SDS011;62812;55.188;61.302;2023-08-07T13:11:42;8.43;;;5.55;;
74375;SDS011;62812;55.188;61.302;2023-08-07T13:14:12;9.77;;;5.78;;
74375;SDS011;62812;55.188;61.302;2023-08-07T13:16:39;8.93;;;5.22;;
74375;SDS011;62812;55.188;61.302;2023-08-07T13:19:06;10.77;;;5.30;;
74375;SDS011;62812;55.188;61.302;2023-08-07T13:21:32;10.23;;;6.03;;
74375;SDS011;62812;55.188;61.302;2023-08-07T13:23:59;11.40;;;6.53;;
74375;SDS011;62812;55.188;61.302;2023-08-07T13:26:26;9.25;;;5.40;;
74375;SDS011;62812;55.188;61.302;2023-08-07T13:28:52;9.60;;;5.80;;
74375;SDS011;62812;55.188;61.302;2023-08-07T13:31:21;14.38;;;6.15;;
74375;SDS011;62812;55.188;61.302;2023-08-07T13:33:48;11.40;;;5.78;;
74375;SDS011;62812;55.188;61.302;2023-08-07T13:44:20;9.82;;;6.68;;
74375;SDS011;62812;55.188;61.302;2023-08-07T13:49:18;13.55;;;6.30;;
74375;SDS011;62812;55.188;61.302;2023-08-07T13:51:46;17.17;;;6.60;;
74375;SDS011;62812;55.188;61.302;2023-08-07T13:54:13;13.27;;;6.63;;
74375;SDS011;62812;55.188;61.302;2023-08-07T13:56:40;14.07;;;6.53;;
74375;SDS011;62812;55.188;61.302;2023-08-07T13:59:07;15.85;;;7.65;;
74375;SDS011;62812;55.188;61.302;2023-08-07T14:01:35;11.45;;;6.95;;
74375;SDS011;62812;55.188;61.302;2023-08-07T14:04:06;12.85;;;7.35;;
74375;SDS011;62812;55.188;61.302;2023-08-07T14:06:34;17.92;;;7.97;;
74375;SDS011;62812;55.188;61.302;2023-08-07T14:09:01;12.05;;;8.15;;
74375;SDS011;62812;55.188;61.302;2023-08-07T14:11:28;15.73;;;9.02;;
74375;SDS011;62812;55.188;61.302;2023-08-07T14:14:01;13.57;;;8.98;;
74375;SDS011;62812;55.188;61.302;2023-08-07T14:16:28;15.07;;;8.98;;
74375;SDS011;62812;55.188;61.302;2023-08-07T14:18:55;14.88;;;9.38;;
74375;SDS011;62812;55.188;61.302;2023-08-07T14:21:24;16.02;;;9.77;;
74375;SDS011;62812;55.188;61.302;2023-08-07T14:23:51;15.38;;;8.73;;
74375;SDS011;62812;55.188;61.302;2023-08-07T14:26:20;17.45;;;9.73;;
74375;SDS011;62812;55.188;61.302;2023-08-07T14:28:47;16.70;;;9.43;;
74375;SDS011;62812;55.188;61.302;2023-08-07T14:31:22;15.18;;;9.98;;
74375;SDS011;62812;55.188;61.302;2023-08-07T14:33:50;14.73;;;8.88;;
74375;SDS011;62812;55.188;61.302;2023-08-07T14:36:25;16.73;;;10.77;;
74375;SDS011;62812;55.188;61.302;2023-08-07T14:38:55;19.83;;;10.35;;